sensor_id;sensor_type;location;lat;lon;timestamp;pressure;altitude;pressure_sealevel;temperature;humidity
64675;BME280;51090;51.512;11.332;2023-03-05T00:01:52;99545.56;;;5.99;70.95
64675;BME280;51090;51.512;11.332;2023-03-05T00:04:18;99544.59;;;6.00;71.93
64675;BME280;51090;51.512;11.332;2023-03-05T00:06:44;99549.25;;;6.06;72.18
64675;BME280;51090;51.512;11.332;2023-03-05T00:09:10;99540.38;;;6.07;71.13
64675;BME280;51090;51.512;11.332;2023-03-05T00:11:36;99539.69;;;6.05;70.77
64675;BME280;51090;51.512;11.332;2023-03-05T00:14:03;99528.44;;;5.95;70.37
64675;BME280;51090;51.512;11.332;2023-03-05T00:16:29;99544.00;;;6.06;70.60
64675;BME280;51090;51.512;11.332;2023-03-05T00:18:58;99541.72;;;6.12;70.66
64675;BME280;51090;51.512;11.332;2023-03-05T00:21:32;99536.81;;;6.17;71.32
64675;BME280;51090;51.512;11.332;2023-03-05T00:24:01;99524.13;;;6.12;72.00
64675;BME280;51090;51.512;11.332;2023-03-05T00:26:29;99531.56;;;6.17;72.09
64675;BME280;51090;51.512;11.332;2023-03-05T00:28:56;99529.53;;;6.10;69.26
64675;BME280;51090;51.512;11.332;2023-03-05T00:31:26;99531.34;;;6.10;69.02
64675;BME280;51090;51.512;11.332;2023-03-05T00:33:58;99514.72;;;6.09;69.83
64675;BME280;51090;51.512;11.332;2023-03-05T00:36:24;99518.94;;;6.02;68.45
64675;BME280;51090;51.512;11.332;2023-03-05T00:38:51;99497.25;;;5.90;68.62
64675;BME280;51090;51.512;11.332;2023-03-05T00:41:16;99511.41;;;5.89;67.16
64675;BME280;51090;51.512;11.332;2023-03-05T00:43:43;99512.81;;;5.94;67.93
64675;BME280;51090;51.512;11.332;2023-03-05T00:46:08;99480.53;;;5.74;68.35
64675;BME280;51090;51.512;11.332;2023-03-05T00:48:34;99483.22;;;5.82;68.87
64675;BME280;51090;51.512;11.332;2023-03-05T00:51:00;99507.38;;;5.95;69.45
64675;BME280;51090;51.512;11.332;2023-03-05T00:53:26;99506.41;;;5.96;69.67
64675;BME280;51090;51.512;11.332;2023-03-05T00:55:52;99499.69;;;6.02;69.21
64675;BME280;51090;51.512;11.332;2023-03-05T00:58:17;99491.78;;;6.02;69.03
64675;BME280;51090;51.512;11.332;2023-03-05T01:00:43;99480.09;;;5.96;68.38
64675;BME280;51090;51.512;11.332;2023-03-05T01:03:09;99467.44;;;5.82;68.11
64675;BME280;51090;51.512;11.332;2023-03-05T01:05:35;99479.22;;;5.96;66.80
64675;BME280;51090;51.512;11.332;2023-03-05T01:08:01;99477.06;;;5.91;67.42
64675;BME280;51090;51.512;11.332;2023-03-05T01:10:27;99477.28;;;5.98;67.46
64675;BME280;51090;51.512;11.332;2023-03-05T01:12:55;99474.50;;;5.99;67.07
64675;BME280;51090;51.512;11.332;2023-03-05T01:15:22;99468.41;;;5.99;66.58
64675;BME280;51090;51.512;11.332;2023-03-05T01:17:48;99472.38;;;5.85;66.33
64675;BME280;51090;51.512;11.332;2023-03-05T01:20:16;99466.53;;;5.91;67.26
64675;BME280;51090;51.512;11.332;2023-03-05T01:22:42;99472.06;;;5.88;66.91
64675;BME280;51090;51.512;11.332;2023-03-05T01:25:09;99471.94;;;5.89;66.73
64675;BME280;51090;51.512;11.332;2023-03-05T01:27:36;99473.69;;;5.81;67.14
64675;BME280;51090;51.512;11.332;2023-03-05T01:30:03;99473.00;;;5.79;67.78
64675;BME280;51090;51.512;11.332;2023-03-05T01:32:29;99470.59;;;5.67;68.68
64675;BME280;51090;51.512;11.332;2023-03-05T01:34:55;99451.38;;;5.49;69.28
64675;BME280;51090;51.512;11.332;2023-03-05T01:37:20;99455.44;;;5.61;70.35
64675;BME280;51090;51.512;11.332;2023-03-05T01:39:46;99459.88;;;5.61;70.50
64675;BME280;51090;51.512;11.332;2023-03-05T01:42:12;99453.81;;;5.60;71.59
64675;BME280;51090;51.512;11.332;2023-03-05T01:44:37;99445.38;;;5.57;71.52
64675;BME280;51090;51.512;11.332;2023-03-05T01:47:03;99445.91;;;5.60;72.29
64675;BME280;51090;51.512;11.332;2023-03-05T01:49:38;99441.38;;;5.71;72.88
64675;BME280;51090;51.512;11.332;2023-03-05T01:52:16;99445.16;;;5.68;73.73
64675;BME280;51090;51.512;11.332;2023-03-05T01:55:09;99445.50;;;5.73;73.41
64675;BME280;51090;51.512;11.332;2023-03-05T01:57:43;99444.28;;;5.67;73.56
64675;BME280;51090;51.512;11.332;2023-03-05T02:03:05;99435.13;;;5.72;72.42
64675;BME280;51090;51.512;11.332;2023-03-05T02:05:35;99442.72;;;5.75;73.05
64675;BME280;51090;51.512;11.332;2023-03-05T02:08:07;99421.16;;;5.71;74.07
64675;BME280;51090;51.512;11.332;2023-03-05T02:10:42;99422.19;;;5.78;73.08
64675;BME280;51090;51.512;11.332;2023-03-05T02:13:16;99425.47;;;5.80;72.82
64675;BME280;51090;51.512;11.332;2023-03-05T02:15:42;99425.97;;;5.76;73.20
64675;BME280;51090;51.512;11.332;2023-03-05T02:18:09;99428.09;;;5.80;73.83
64675;BME280;51090;51.512;11.332;2023-03-05T02:21:10;99436.59;;;5.92;73.59
64675;BME280;51090;51.512;11.332;2023-03-05T02:23:37;99421.19;;;5.79;73.79
64675;BME280;51090;51.512;11.332;2023-03-05T02:26:07;99402.28;;;5.76;73.43
64675;BME280;51090;51.512;11.332;2023-03-05T02:28:39;99410.69;;;5.79;72.89
64675;BME280;51090;51.512;11.332;2023-03-05T02:31:13;99418.44;;;5.81;72.49
64675;BME280;51090;51.512;11.332;2023-03-05T02:33:39;99405.88;;;5.75;73.18
64675;BME280;51090;51.512;11.332;2023-03-05T02:36:05;99402.09;;;5.77;73.43
64675;BME280;51090;51.512;11.332;2023-03-05T02:38:33;99398.38;;;5.88;72.51
64675;BME280;51090;51.512;11.332;2023-03-05T02:40:59;99405.63;;;5.86;72.42
64675;BME280;51090;51.512;11.332;2023-03-05T02:43:25;99401.69;;;5.90;72.59
64675;BME280;51090;51.512;11.332;2023-03-05T02:45:51;99408.44;;;5.93;72.74
64675;BME280;51090;51.512;11.332;2023-03-05T02:48:17;99409.97;;;5.95;72.87
64675;BME280;51090;51.512;11.332;2023-03-05T02:50:44;99403.25;;;6.01;70.42
64675;BME280;51090;51.512;11.332;2023-03-05T02:53:10;99391.91;;;6.00;71.94
64675;BME280;51090;51.512;11.332;2023-03-05T02:55:36;99387.47;;;6.01;70.95
64675;BME280;51090;51.512;11.332;2023-03-05T02:58:02;99387.63;;;5.99;70.92
64675;BME280;51090;51.512;11.332;2023-03-05T03:00:27;99391.34;;;5.88;68.04
64675;BME280;51090;51.512;11.332;2023-03-05T03:02:53;99386.47;;;5.94;69.69
64675;BME280;51090;51.512;11.332;2023-03-05T03:05:19;99385.09;;;5.89;69.33
64675;BME280;51090;51.512;11.332;2023-03-05T03:07:45;99386.22;;;5.87;69.06
64675;BME280;51090;51.512;11.332;2023-03-05T03:10:11;99381.59;;;5.81;68.17
64675;BME280;51090;51.512;11.332;2023-03-05T03:12:43;99379.31;;;5.86;67.21
64675;BME280;51090;51.512;11.332;2023-03-05T03:15:13;99377.66;;;5.85;68.36
64675;BME280;51090;51.512;11.332;2023-03-05T03:17:39;99377.25;;;5.72;68.60
64675;BME280;51090;51.512;11.332;2023-03-05T03:20:10;99380.22;;;5.77;68.70
64675;BME280;51090;51.512;11.332;2023-03-05T03:22:36;99366.88;;;5.70;69.02
64675;BME280;51090;51.512;11.332;2023-03-05T03:25:02;99359.50;;;5.74;68.49
64675;BME280;51090;51.512;11.332;2023-03-05T03:27:28;99360.47;;;5.73;68.97
64675;BME280;51090;51.512;11.332;2023-03-05T03:29:54;99357.22;;;5.79;68.69
64675;BME280;51090;51.512;11.332;2023-03-05T03:32:20;99352.63;;;5.81;68.58
64675;BME280;51090;51.512;11.332;2023-03-05T03:34:46;99344.22;;;5.77;68.83
64675;BME280;51090;51.512;11.332;2023-03-05T03:37:13;99342.75;;;5.83;68.74
64675;BME280;51090;51.512;11.332;2023-03-05T03:39:39;99318.31;;;5.64;68.99
64675;BME280;51090;51.512;11.332;2023-03-05T03:42:05;99328.44;;;5.77;69.54
64675;BME280;51090;51.512;11.332;2023-03-05T03:44:31;99333.22;;;5.82;70.92
64675;BME280;51090;51.512;11.332;2023-03-05T03:46:56;99327.81;;;5.83;72.00
64675;BME280;51090;51.512;11.332;2023-03-05T03:49:24;99331.00;;;5.95;72.66
64675;BME280;51090;51.512;11.332;2023-03-05T03:51:52;99325.75;;;5.95;74.07
64675;BME280;51090;51.512;11.332;2023-03-05T03:54:22;99331.31;;;5.92;74.03
64675;BME280;51090;51.512;11.332;2023-03-05T03:56:48;99331.00;;;5.95;74.56
64675;BME280;51090;51.512;11.332;2023-03-05T03:59:14;99315.50;;;5.92;75.43
64675;BME280;51090;51.512;11.332;2023-03-05T04:01:40;99311.88;;;5.93;75.37
64675;BME280;51090;51.512;11.332;2023-03-05T04:04:06;99315.66;;;5.90;76.70
64675;BME280;51090;51.512;11.332;2023-03-05T04:06:33;99298.66;;;5.77;76.67
64675;BME280;51090;51.512;11.332;2023-03-05T04:08:59;99311.84;;;5.85;77.43
64675;BME280;51090;51.512;11.332;2023-03-05T04:11:24;99320.22;;;5.80;78.36
64675;BME280;51090;51.512;11.332;2023-03-05T04:13:50;99312.03;;;5.83;77.36
64675;BME280;51090;51.512;11.332;2023-03-05T04:16:17;99305.41;;;5.79;78.42
64675;BME280;51090;51.512;11.332;2023-03-05T04:18:44;99303.47;;;5.81;79.16
64675;BME280;51090;51.512;11.332;2023-03-05T04:21:10;99295.53;;;5.73;79.74
64675;BME280;51090;51.512;11.332;2023-03-05T04:23:36;99296.16;;;5.67;82.81
64675;BME280;51090;51.512;11.332;2023-03-05T04:26:03;99301.72;;;5.64;81.81
64675;BME280;51090;51.512;11.332;2023-03-05T04:28:28;99291.00;;;5.57;81.87
64675;BME280;51090;51.512;11.332;2023-03-05T04:30:54;99291.00;;;5.57;82.07
64675;BME280;51090;51.512;11.332;2023-03-05T04:33:20;99294.63;;;5.56;83.86
64675;BME280;51090;51.512;11.332;2023-03-05T04:35:46;99285.25;;;5.62;81.93
64675;BME280;51090;51.512;11.332;2023-03-05T04:38:12;99281.50;;;5.64;81.95
64675;BME280;51090;51.512;11.332;2023-03-05T04:40:38;99286.03;;;5.54;83.77
64675;BME280;51090;51.512;11.332;2023-03-05T04:43:04;99282.75;;;5.52;83.41
64675;BME280;51090;51.512;11.332;2023-03-05T04:45:30;99282.25;;;5.49;83.43
64675;BME280;51090;51.512;11.332;2023-03-05T04:47:56;99279.47;;;5.50;83.29
64675;BME280;51090;51.512;11.332;2023-03-05T04:50:22;99273.22;;;5.51;82.82
64675;BME280;51090;51.512;11.332;2023-03-05T04:52:47;99280.44;;;5.49;83.50
64675;BME280;51090;51.512;11.332;2023-03-05T04:55:14;99276.34;;;5.55;83.35
64675;BME280;51090;51.512;11.332;2023-03-05T04:57:41;99265.97;;;5.45;83.56
64675;BME280;51090;51.512;11.332;2023-03-05T05:00:12;99266.00;;;5.53;83.72
64675;BME280;51090;51.512;11.332;2023-03-05T05:02:47;99272.41;;;5.51;85.03
64675;BME280;51090;51.512;11.332;2023-03-05T05:05:16;99271.09;;;5.55;88.65
64675;BME280;51090;51.512;11.332;2023-03-05T05:07:42;99263.94;;;5.39;87.71
64675;BME280;51090;51.512;11.332;2023-03-05T05:10:10;99264.28;;;5.44;85.48
64675;BME280;51090;51.512;11.332;2023-03-05T05:12:36;99255.53;;;5.35;86.52
64675;BME280;51090;51.512;11.332;2023-03-05T05:15:04;99255.91;;;5.40;87.09
64675;BME280;51090;51.512;11.332;2023-03-05T05:17:30;99255.38;;;5.37;86.38
64675;BME280;51090;51.512;11.332;2023-03-05T05:19:58;99255.91;;;5.40;87.63
64675;BME280;51090;51.512;11.332;2023-03-05T05:22:24;99243.34;;;5.34;87.33
64675;BME280;51090;51.512;11.332;2023-03-05T05:24:50;99255.91;;;5.40;87.00
64675;BME280;51090;51.512;11.332;2023-03-05T05:27:15;99255.38;;;5.37;87.61
64675;BME280;51090;51.512;11.332;2023-03-05T05:29:41;99245.03;;;5.35;88.04
64675;BME280;51090;51.512;11.332;2023-03-05T05:32:07;99244.56;;;5.40;88.44
64675;BME280;51090;51.512;11.332;2023-03-05T05:34:32;99240.72;;;5.34;90.20
64675;BME280;51090;51.512;11.332;2023-03-05T05:36:58;99230.94;;;5.18;90.67
64675;BME280;51090;51.512;11.332;2023-03-05T05:39:24;99246.00;;;5.34;87.75
64675;BME280;51090;51.512;11.332;2023-03-05T05:41:51;99241.41;;;5.36;90.76
64675;BME280;51090;51.512;11.332;2023-03-05T05:44:17;99248.56;;;5.26;88.66
64675;BME280;51090;51.512;11.332;2023-03-05T05:46:43;99245.59;;;5.21;90.32
64675;BME280;51090;51.512;11.332;2023-03-05T05:49:09;99243.81;;;5.21;89.57
64675;BME280;51090;51.512;11.332;2023-03-05T05:51:35;99235.25;;;5.19;89.69
64675;BME280;51090;51.512;11.332;2023-03-05T05:54:01;99237.56;;;5.22;88.79
64675;BME280;51090;51.512;11.332;2023-03-05T05:56:26;99243.81;;;5.21;89.39
64675;BME280;51090;51.512;11.332;2023-03-05T05:58:53;99244.34;;;5.33;89.12
64675;BME280;51090;51.512;11.332;2023-03-05T06:01:26;99249.91;;;5.56;89.11
64675;BME280;51090;51.512;11.332;2023-03-05T06:03:53;99240.03;;;5.58;88.95
64675;BME280;51090;51.512;11.332;2023-03-05T06:06:21;99246.69;;;5.71;88.73
64675;BME280;51090;51.512;11.332;2023-03-05T06:08:48;99242.72;;;5.66;88.73
64675;BME280;51090;51.512;11.332;2023-03-05T06:11:14;99244.66;;;5.64;89.41
64675;BME280;51090;51.512;11.332;2023-03-05T06:13:40;99238.34;;;5.49;91.34
64675;BME280;51090;51.512;11.332;2023-03-05T06:16:11;99240.88;;;5.59;91.62
64675;BME280;51090;51.512;11.332;2023-03-05T06:18:37;99241.19;;;5.56;90.24
64675;BME280;51090;51.512;11.332;2023-03-05T06:21:06;99246.00;;;5.68;90.29
64675;BME280;51090;51.512;11.332;2023-03-05T06:23:33;99239.72;;;5.61;89.89
64675;BME280;51090;51.512;11.332;2023-03-05T06:26:01;99234.81;;;5.66;90.53
64675;BME280;51090;51.512;11.332;2023-03-05T06:28:28;99227.06;;;5.65;94.36
64675;BME280;51090;51.512;11.332;2023-03-05T06:31:09;99225.13;;;5.75;90.67
64675;BME280;51090;51.512;11.332;2023-03-05T06:33:37;99236.81;;;5.73;91.00
64675;BME280;51090;51.512;11.332;2023-03-05T06:36:05;99244.22;;;5.77;92.34
64675;BME280;51090;51.512;11.332;2023-03-05T06:38:31;99238.81;;;5.79;91.05
64675;BME280;51090;51.512;11.332;2023-03-05T06:41:00;99242.47;;;5.86;92.76
64675;BME280;51090;51.512;11.332;2023-03-05T06:43:27;99240.63;;;5.78;92.84
64675;BME280;51090;51.512;11.332;2023-03-05T06:46:14;99237.94;;;5.96;92.51
64675;BME280;51090;51.512;11.332;2023-03-05T06:48:40;99245.25;;;5.84;92.33
64675;BME280;51090;51.512;11.332;2023-03-05T06:51:22;99239.97;;;5.84;95.86
64675;BME280;51090;51.512;11.332;2023-03-05T06:53:50;99248.34;;;5.80;92.60
64675;BME280;51090;51.512;11.332;2023-03-05T06:56:17;99244.22;;;5.77;93.61
64675;BME280;51090;51.512;11.332;2023-03-05T06:58:45;99240.91;;;5.75;97.73
64675;BME280;51090;51.512;11.332;2023-03-05T07:01:13;99243.88;;;5.72;96.65
64675;BME280;51090;51.512;11.332;2023-03-05T07:03:39;99239.75;;;5.70;95.22
64675;BME280;51090;51.512;11.332;2023-03-05T07:06:09;99246.72;;;5.79;96.29
64675;BME280;51090;51.512;11.332;2023-03-05T07:08:36;99250.19;;;5.87;94.63
64675;BME280;51090;51.512;11.332;2023-03-05T07:11:02;99246.06;;;5.85;96.38
64675;BME280;51090;51.512;11.332;2023-03-05T07:13:29;99248.28;;;5.98;95.43
64675;BME280;51090;51.512;11.332;2023-03-05T07:15:54;99249.78;;;6.08;95.28
64675;BME280;51090;51.512;11.332;2023-03-05T07:18:20;99250.47;;;6.19;94.79
64675;BME280;51090;51.512;11.332;2023-03-05T07:20:46;99250.16;;;6.22;93.23
64675;BME280;51090;51.512;11.332;2023-03-05T07:23:12;99250.50;;;6.27;92.51
64675;BME280;51090;51.512;11.332;2023-03-05T07:25:38;99245.06;;;6.37;92.67
64675;BME280;51090;51.512;11.332;2023-03-05T07:28:05;99249.22;;;6.47;92.77
64675;BME280;51090;51.512;11.332;2023-03-05T07:30:32;99237.03;;;6.54;92.76
64675;BME280;51090;51.512;11.332;2023-03-05T07:32:58;99210.53;;;6.48;92.38
64675;BME280;51090;51.512;11.332;2023-03-05T07:35:24;99237.38;;;6.84;92.20
64675;BME280;51090;51.512;11.332;2023-03-05T07:37:50;99233.88;;;7.08;92.04
64675;BME280;51090;51.512;11.332;2023-03-05T07:40:16;99231.53;;;7.30;91.13
64675;BME280;51090;51.512;11.332;2023-03-05T07:42:42;99233.47;;;7.44;89.47
64675;BME280;51090;51.512;11.332;2023-03-05T07:45:09;99230.59;;;7.62;88.96
64675;BME280;51090;51.512;11.332;2023-03-05T07:47:35;99226.91;;;7.79;89.17
64675;BME280;51090;51.512;11.332;2023-03-05T07:50:01;99222.34;;;7.96;87.35
64675;BME280;51090;51.512;11.332;2023-03-05T07:52:28;99219.16;;;8.09;87.04
64675;BME280;51090;51.512;11.332;2023-03-05T07:54:53;99217.41;;;8.24;85.61
64675;BME280;51090;51.512;11.332;2023-03-05T07:57:19;99216.38;;;8.34;84.98
64675;BME280;51090;51.512;11.332;2023-03-05T07:59:45;99211.06;;;8.42;84.69
64675;BME280;51090;51.512;11.332;2023-03-05T08:02:12;99204.34;;;8.54;82.86
64675;BME280;51090;51.512;11.332;2023-03-05T08:04:39;99202.38;;;8.56;80.76
64675;BME280;51090;51.512;11.332;2023-03-05T08:07:05;99208.00;;;8.53;82.15
64675;BME280;51090;51.512;11.332;2023-03-05T08:09:30;99208.03;;;8.68;83.13
64675;BME280;51090;51.512;11.332;2023-03-05T08:11:56;99203.81;;;8.82;82.69
64675;BME280;51090;51.512;11.332;2023-03-05T08:14:22;99199.72;;;8.94;82.15
64675;BME280;51090;51.512;11.332;2023-03-05T08:16:48;99204.56;;;9.05;80.91
64675;BME280;51090;51.512;11.332;2023-03-05T08:19:18;99189.91;;;9.18;81.27
64675;BME280;51090;51.512;11.332;2023-03-05T08:21:45;99196.81;;;9.19;78.91
64675;BME280;51090;51.512;11.332;2023-03-05T08:24:12;99181.56;;;9.06;77.47
64675;BME280;51090;51.512;11.332;2023-03-05T08:26:38;99195.19;;;9.18;79.72
64675;BME280;51090;51.512;11.332;2023-03-05T08:29:06;99182.13;;;9.31;79.20
64675;BME280;51090;51.512;11.332;2023-03-05T08:31:32;99189.44;;;9.44;79.32
64675;BME280;51090;51.512;11.332;2023-03-05T08:34:00;99191.81;;;9.38;74.59
64675;BME280;51090;51.512;11.332;2023-03-05T08:36:27;99183.50;;;9.42;74.42
64675;BME280;51090;51.512;11.332;2023-03-05T08:38:53;99176.91;;;9.37;75.21
64675;BME280;51090;51.512;11.332;2023-03-05T08:41:20;99170.97;;;9.50;83.69
64675;BME280;51090;51.512;11.332;2023-03-05T08:43:46;99171.59;;;9.82;80.32
64675;BME280;51090;51.512;11.332;2023-03-05T08:46:13;99175.66;;;9.99;76.89
64675;BME280;51090;51.512;11.332;2023-03-05T08:48:40;99168.78;;;10.05;74.72
64675;BME280;51090;51.512;11.332;2023-03-05T08:51:17;99172.25;;;10.06;70.29
64675;BME280;51090;51.512;11.332;2023-03-05T08:53:47;99175.13;;;9.89;71.25
64675;BME280;51090;51.512;11.332;2023-03-05T08:56:13;99176.09;;;9.67;70.66
64675;BME280;51090;51.512;11.332;2023-03-05T08:58:39;99172.91;;;9.56;70.96
64675;BME280;51090;51.512;11.332;2023-03-05T09:01:05;99170.38;;;9.48;71.25
64675;BME280;51090;51.512;11.332;2023-03-05T09:03:31;99165.69;;;9.50;72.24
64675;BME280;51090;51.512;11.332;2023-03-05T09:06:02;99173.34;;;9.60;72.00
64675;BME280;51090;51.512;11.332;2023-03-05T09:08:29;99167.34;;;9.51;74.10
64675;BME280;51090;51.512;11.332;2023-03-05T09:10:55;99172.63;;;9.51;74.47
64675;BME280;51090;51.512;11.332;2023-03-05T09:13:21;99145.63;;;9.26;73.38
64675;BME280;51090;51.512;11.332;2023-03-05T09:16:00;99162.97;;;9.44;72.15
64675;BME280;51090;51.512;11.332;2023-03-05T09:18:27;99156.41;;;9.25;72.91
64675;BME280;51090;51.512;11.332;2023-03-05T09:20:53;99155.59;;;9.09;71.00
64675;BME280;51090;51.512;11.332;2023-03-05T09:23:19;99159.47;;;8.69;70.82
64675;BME280;51090;51.512;11.332;2023-03-05T09:25:45;99151.94;;;8.58;72.09
64675;BME280;51090;51.512;11.332;2023-03-05T09:28:11;99160.34;;;8.38;73.56
64675;BME280;51090;51.512;11.332;2023-03-05T09:30:37;99150.16;;;8.35;75.27
64675;BME280;51090;51.512;11.332;2023-03-05T09:33:03;99156.41;;;8.34;75.87
64675;BME280;51090;51.512;11.332;2023-03-05T09:35:34;99151.09;;;8.42;75.82
64675;BME280;51090;51.512;11.332;2023-03-05T09:38:00;99152.66;;;8.28;75.70
64675;BME280;51090;51.512;11.332;2023-03-05T09:41:19;99137.69;;;8.21;75.80
64675;BME280;51090;51.512;11.332;2023-03-05T09:46:17;99150.44;;;8.17;77.59
64675;BME280;51090;51.512;11.332;2023-03-05T09:51:37;99129.47;;;8.39;78.96
64675;BME280;51090;51.512;11.332;2023-03-05T09:54:22;99145.34;;;8.77;78.51
64675;BME280;51090;51.512;11.332;2023-03-05T09:57:00;99147.81;;;8.93;78.07
64675;BME280;51090;51.512;11.332;2023-03-05T10:02:27;99126.38;;;8.88;77.00
64675;BME280;51090;51.512;11.332;2023-03-05T10:05:27;99131.94;;;8.93;77.39
64675;BME280;51090;51.512;11.332;2023-03-05T10:08:02;99144.53;;;8.91;77.66
64675;BME280;51090;51.512;11.332;2023-03-05T10:10:41;99149.91;;;8.83;78.23
64675;BME280;51090;51.512;11.332;2023-03-05T10:13:37;99140.44;;;8.74;81.08
64675;BME280;51090;51.512;11.332;2023-03-05T10:19:18;99127.31;;;8.95;82.88
64675;BME280;51090;51.512;11.332;2023-03-05T10:22:18;99136.78;;;9.19;78.93
64675;BME280;51090;51.512;11.332;2023-03-05T10:25:13;99114.16;;;9.16;77.09
64675;BME280;51090;51.512;11.332;2023-03-05T10:27:57;99120.78;;;9.42;75.63
64675;BME280;51090;51.512;11.332;2023-03-05T10:31:17;99124.59;;;9.69;76.59
64675;BME280;51090;51.512;11.332;2023-03-05T10:36:52;99111.81;;;10.16;73.64
64675;BME280;51090;51.512;11.332;2023-03-05T10:45:28;99099.94;;;10.12;66.94
64675;BME280;51090;51.512;11.332;2023-03-05T10:48:05;99091.38;;;10.10;68.47
64675;BME280;51090;51.512;11.332;2023-03-05T10:50:43;99083.69;;;10.15;71.45
64675;BME280;51090;51.512;11.332;2023-03-05T10:53:31;99063.25;;;10.09;67.39
64675;BME280;51090;51.512;11.332;2023-03-05T10:56:04;99049.75;;;9.82;66.97
64675;BME280;51090;51.512;11.332;2023-03-05T10:58:32;99076.75;;;9.92;67.79
64675;BME280;51090;51.512;11.332;2023-03-05T11:03:48;99064.31;;;9.71;66.89
64675;BME280;51090;51.512;11.332;2023-03-05T11:06:15;99058.28;;;9.41;68.60
64675;BME280;51090;51.512;11.332;2023-03-05T11:08:50;99042.84;;;9.08;69.55
64675;BME280;51090;51.512;11.332;2023-03-05T11:11:18;99082.44;;;9.02;71.74
64675;BME280;51090;51.512;11.332;2023-03-05T11:14:01;99072.78;;;8.64;82.02
64675;BME280;51090;51.512;11.332;2023-03-05T11:16:33;99055.25;;;7.88;90.58
64675;BME280;51090;51.512;11.332;2023-03-05T11:22:03;99061.78;;;7.77;91.38
64675;BME280;51090;51.512;11.332;2023-03-05T11:24:29;99050.56;;;7.75;87.83
64675;BME280;51090;51.512;11.332;2023-03-05T11:26:56;99042.13;;;7.79;89.99
64675;BME280;51090;51.512;11.332;2023-03-05T11:29:27;99068.16;;;7.82;86.30
64675;BME280;51090;51.512;11.332;2023-03-05T11:31:54;99054.50;;;7.79;86.32
64675;BME280;51090;51.512;11.332;2023-03-05T11:39:22;99052.09;;;7.92;83.77
64675;BME280;51090;51.512;11.332;2023-03-05T11:41:58;99051.88;;;8.02;75.76
64675;BME280;51090;51.512;11.332;2023-03-05T11:47:18;99033.75;;;8.14;70.65
64675;BME280;51090;51.512;11.332;2023-03-05T11:49:53;99027.84;;;8.26;68.69
64675;BME280;51090;51.512;11.332;2023-03-05T11:52:27;99043.03;;;8.47;65.01
64675;BME280;51090;51.512;11.332;2023-03-05T11:55:02;99053.16;;;8.44;62.28
64675;BME280;51090;51.512;11.332;2023-03-05T11:57:42;99033.78;;;8.28;60.56
64675;BME280;51090;51.512;11.332;2023-03-05T12:00:17;99033.75;;;8.52;63.55
64675;BME280;51090;51.512;11.332;2023-03-05T12:02:51;99027.25;;;8.39;58.43
64675;BME280;51090;51.512;11.332;2023-03-05T12:05:17;99020.16;;;8.40;62.05
64675;BME280;51090;51.512;11.332;2023-03-05T12:07:49;99036.50;;;8.43;58.37
64675;BME280;51090;51.512;11.332;2023-03-05T12:10:24;99033.69;;;8.37;58.80
64675;BME280;51090;51.512;11.332;2023-03-05T12:13:21;99014.41;;;8.36;56.98
64675;BME280;51090;51.512;11.332;2023-03-05T12:18:48;99005.50;;;8.14;54.20
64675;BME280;51090;51.512;11.332;2023-03-05T12:21:35;99004.34;;;8.02;55.00
64675;BME280;51090;51.512;11.332;2023-03-05T12:29:48;99007.94;;;7.86;56.67
64675;BME280;51090;51.512;11.332;2023-03-05T12:40:31;98988.03;;;8.13;59.74
64675;BME280;51090;51.512;11.332;2023-03-05T12:43:02;98983.59;;;8.28;59.22
64675;BME280;51090;51.512;11.332;2023-03-05T12:45:37;98978.41;;;8.20;57.68
64675;BME280;51090;51.512;11.332;2023-03-05T12:58:23;98969.47;;;8.36;54.74
64675;BME280;51090;51.512;11.332;2023-03-05T13:06:34;98951.72;;;8.45;54.54
64675;BME280;51090;51.512;11.332;2023-03-05T13:09:14;98945.78;;;8.28;53.74
64675;BME280;51090;51.512;11.332;2023-03-05T13:11:42;98953.88;;;8.12;54.84
64675;BME280;51090;51.512;11.332;2023-03-05T13:14:32;98954.72;;;8.12;53.94
64675;BME280;51090;51.512;11.332;2023-03-05T13:16:59;98954.44;;;8.07;56.39
64675;BME280;51090;51.512;11.332;2023-03-05T13:19:34;98956.63;;;8.18;57.59
64675;BME280;51090;51.512;11.332;2023-03-05T13:22:03;98951.84;;;8.52;58.17
64675;BME280;51090;51.512;11.332;2023-03-05T13:24:35;98948.28;;;8.59;58.34
64675;BME280;51090;51.512;11.332;2023-03-05T13:27:00;98941.53;;;8.71;56.36
64675;BME280;51090;51.512;11.332;2023-03-05T13:29:26;98946.31;;;8.83;56.72
64675;BME280;51090;51.512;11.332;2023-03-05T13:31:57;98932.66;;;8.79;52.96
64675;BME280;51090;51.512;11.332;2023-03-05T13:34:33;98932.94;;;8.69;52.11
64675;BME280;51090;51.512;11.332;2023-03-05T13:37:03;98925.41;;;8.52;52.38
64675;BME280;51090;51.512;11.332;2023-03-05T13:39:36;98928.59;;;8.47;55.64
64675;BME280;51090;51.512;11.332;2023-03-05T13:42:19;98926.41;;;8.50;52.85
64675;BME280;51090;51.512;11.332;2023-03-05T13:45:04;98928.66;;;8.39;52.91
64675;BME280;51090;51.512;11.332;2023-03-05T13:47:33;98903.97;;;8.17;55.83
64675;BME280;51090;51.512;11.332;2023-03-05T13:50:04;98919.47;;;8.20;55.68
64675;BME280;51090;51.512;11.332;2023-03-05T13:52:36;98925.56;;;8.20;54.04
64675;BME280;51090;51.512;11.332;2023-03-05T13:55:12;98901.44;;;8.08;54.43
64675;BME280;51090;51.512;11.332;2023-03-05T13:57:45;98919.38;;;8.13;54.61
64675;BME280;51090;51.512;11.332;2023-03-05T14:00:32;98908.28;;;8.18;54.84
64675;BME280;51090;51.512;11.332;2023-03-05T14:03:23;98897.50;;;8.19;53.03
64675;BME280;51090;51.512;11.332;2023-03-05T14:05:51;98886.13;;;8.34;58.71
64675;BME280;51090;51.512;11.332;2023-03-05T14:08:23;98895.41;;;8.59;54.69
64675;BME280;51090;51.512;11.332;2023-03-05T14:10:51;98902.06;;;8.55;56.42
64675;BME280;51090;51.512;11.332;2023-03-05T14:13:21;98911.75;;;8.48;53.04
64675;BME280;51090;51.512;11.332;2023-03-05T14:16:15;98915.94;;;8.42;53.44
64675;BME280;51090;51.512;11.332;2023-03-05T14:18:56;98898.31;;;8.35;53.60
64675;BME280;51090;51.512;11.332;2023-03-05T14:21:25;98892.75;;;8.29;56.07
64675;BME280;51090;51.512;11.332;2023-03-05T14:24:23;98894.34;;;8.54;56.14